createdAt,value
2019-01-20T00:01:46.756Z,-0.38
2019-01-20T00:04:17.230Z,-0.36
2019-01-20T00:06:47.858Z,-0.35
2019-01-20T00:09:18.486Z,-0.32
2019-01-20T00:11:49.262Z,-0.36
2019-01-20T00:14:20.065Z,-0.42
2019-01-20T00:16:50.537Z,-0.41
2019-01-20T00:19:21.087Z,-0.38
2019-01-20T00:21:51.539Z,-0.44
2019-01-20T00:24:21.971Z,-0.49
2019-01-20T00:26:52.456Z,-0.55
2019-01-20T00:29:22.842Z,-0.58
2019-01-20T00:31:53.244Z,-0.65
2019-01-20T00:34:23.819Z,-0.62
2019-01-20T00:36:54.355Z,-0.62
2019-01-20T00:39:24.870Z,-0.67
2019-01-20T00:41:55.347Z,-0.73
2019-01-20T00:44:26.094Z,-0.73
2019-01-20T00:46:56.903Z,-0.72
2019-01-20T00:49:27.375Z,-0.71
2019-01-20T00:51:58.114Z,-0.72
2019-01-20T00:54:28.700Z,-0.63
2019-01-20T00:56:59.395Z,-0.61
2019-01-20T00:59:29.832Z,-0.61
2019-01-20T01:02:00.390Z,-0.55
2019-01-20T01:04:30.872Z,-0.68
2019-01-20T01:07:01.605Z,-0.65
2019-01-20T01:09:32.366Z,-0.68
2019-01-20T01:12:02.908Z,-0.72
2019-01-20T01:14:33.622Z,-0.76
2019-01-20T01:17:04.706Z,-0.79
2019-01-20T01:19:35.318Z,-0.80
2019-01-20T01:22:06.159Z,-0.84
2019-01-20T01:24:36.920Z,-0.83
2019-01-20T01:27:07.376Z,-0.90
2019-01-20T01:29:37.876Z,-0.85
2019-01-20T01:32:08.411Z,-0.95
2019-01-20T01:34:38.862Z,-0.84
2019-01-20T01:37:09.336Z,-0.95
2019-01-20T01:39:39.847Z,-0.98
2019-01-20T01:42:10.349Z,-0.88
2019-01-20T01:44:40.837Z,-0.99
2019-01-20T01:47:11.325Z,-1.02
2019-01-20T01:49:41.759Z,-1.04
2019-01-20T01:52:12.419Z,-1.09
2019-01-20T01:54:42.848Z,-1.14
2019-01-20T01:57:13.339Z,-1.16
2019-01-20T01:59:43.819Z,-1.11
2019-01-20T02:02:14.265Z,-1.13
2019-01-20T02:04:44.711Z,-1.13
2019-01-20T02:07:15.178Z,-1.10
2019-01-20T02:09:45.642Z,-1.05
2019-01-20T02:12:16.407Z,-1.04
2019-01-20T02:14:46.853Z,-1.02
2019-01-20T02:17:17.301Z,-1.02
2019-01-20T02:19:48.010Z,-0.99
2019-01-20T02:22:18.463Z,-1.10
2019-01-20T02:24:49.001Z,-1.11
2019-01-20T02:27:19.480Z,-1.03
2019-01-20T02:29:50.549Z,-1.04
2019-01-20T02:32:21.371Z,-0.92
2019-01-20T02:34:51.675Z,-1.03
2019-01-20T02:37:22.171Z,-1.01
2019-01-20T02:39:52.696Z,-0.92
2019-01-20T02:42:23.189Z,-0.96
2019-01-20T02:44:53.562Z,-0.88
2019-01-20T02:47:24.055Z,-0.85
2019-01-20T02:49:54.732Z,-0.91
2019-01-20T02:52:25.548Z,-0.86
2019-01-20T02:54:56.397Z,-0.85
2019-01-20T02:57:26.912Z,-0.92
2019-01-20T02:59:57.367Z,-0.87
2019-01-20T03:02:27.984Z,-0.79
2019-01-20T03:04:58.488Z,-0.85
2019-01-20T03:07:28.897Z,-0.83
2019-01-20T03:09:59.445Z,-0.85
2019-01-20T03:12:30.475Z,-0.91
2019-01-20T03:15:00.890Z,-1.04
2019-01-20T03:17:31.389Z,-0.97
2019-01-20T03:20:02.373Z,-0.98
2019-01-20T03:22:32.868Z,-0.98
2019-01-20T03:25:03.370Z,-0.89
2019-01-20T03:27:34.127Z,-0.93
2019-01-20T03:30:06.354Z,-0.99
2019-01-20T03:32:36.787Z,-0.92
2019-01-20T03:35:08.068Z,-0.92
2019-01-20T03:37:38.837Z,-0.99
2019-01-20T03:40:11.815Z,-1.03
2019-01-20T03:42:42.332Z,-1.09
2019-01-20T03:45:18.033Z,-1.05
2019-01-20T03:47:48.887Z,-1.14
2019-01-20T03:50:19.745Z,-1.12
2019-01-20T03:52:50.254Z,-1.10
2019-01-20T03:55:21.102Z,-1.19
2019-01-20T03:57:51.819Z,-1.16
2019-01-20T04:00:27.730Z,-1.21
2019-01-20T04:03:03.071Z,-1.30
2019-01-20T04:05:33.578Z,-1.31
2019-01-20T04:08:04.191Z,-1.38
2019-01-20T04:10:34.688Z,-1.45
2019-01-20T04:13:05.189Z,-1.43
2019-01-20T04:15:35.961Z,-1.51
2019-01-20T04:18:06.699Z,-1.51
2019-01-20T04:20:37.146Z,-1.49
2019-01-20T04:23:07.601Z,-1.52
2019-01-20T04:25:38.361Z,-1.48
2019-01-20T04:28:08.798Z,-1.57
2019-01-20T04:30:39.554Z,-1.61
2019-01-20T04:33:10.258Z,-1.63
2019-01-20T04:35:41.264Z,-1.64
2019-01-20T04:38:11.714Z,-1.67
2019-01-20T04:40:42.202Z,-1.75
2019-01-20T04:43:12.669Z,-1.82
2019-01-20T04:45:43.029Z,-1.82
2019-01-20T04:48:13.515Z,-1.89
2019-01-20T04:50:44.034Z,-1.93
2019-01-20T04:53:14.383Z,-1.97
2019-01-20T04:55:44.842Z,-2.02
2019-01-20T04:58:15.681Z,-2.09
2019-01-20T05:00:46.345Z,-2.08
2019-01-20T05:03:17.090Z,-2.09
2019-01-20T05:05:47.578Z,-2.06
2019-01-20T05:08:18.344Z,-2.07
2019-01-20T05:10:49.075Z,-2.04
2019-01-20T05:13:19.457Z,-2.09
2019-01-20T05:15:49.761Z,-2.14
2019-01-20T05:18:20.733Z,-2.11
2019-01-20T05:20:51.493Z,-2.13
2019-01-20T05:23:22.345Z,-2.08
2019-01-20T05:25:52.760Z,-2.17
2019-01-20T05:28:23.241Z,-2.13
2019-01-20T05:30:53.684Z,-2.11
2019-01-20T05:33:24.158Z,-1.99
2019-01-20T05:35:54.657Z,-2.02
2019-01-20T05:38:25.437Z,-1.98
2019-01-20T05:40:55.917Z,-1.97
2019-01-20T05:43:26.335Z,-2.00
2019-01-20T05:45:57.078Z,-1.95
2019-01-20T05:48:27.773Z,-1.91
2019-01-20T05:50:58.221Z,-1.89
2019-01-20T05:53:28.541Z,-1.89
2019-01-20T05:55:59.035Z,-1.77
2019-01-20T05:58:29.399Z,-1.80
2019-01-20T06:01:00.159Z,-1.72
2019-01-20T06:03:30.576Z,-1.75
2019-01-20T06:06:01.322Z,-1.77
2019-01-20T06:08:32.008Z,-1.69
2019-01-20T06:11:03.024Z,-1.60
2019-01-20T06:13:33.447Z,-1.59
2019-01-20T06:16:03.952Z,-1.58
2019-01-20T06:18:34.337Z,-1.62
2019-01-20T06:21:04.863Z,-1.60
2019-01-20T06:23:35.729Z,-1.71
2019-01-20T06:26:06.304Z,-1.78
2019-01-20T06:28:37.037Z,-1.73
2019-01-20T06:31:07.814Z,-1.67
2019-01-20T06:33:38.299Z,-1.51
2019-01-20T06:36:09.059Z,-1.52
2019-01-20T06:38:39.525Z,-1.50
2019-01-20T06:41:09.938Z,-1.47
2019-01-20T06:43:41.023Z,-1.51
2019-01-20T06:46:11.421Z,-1.41
2019-01-20T06:48:42.168Z,-1.47
2019-01-20T06:51:12.655Z,-1.57
2019-01-20T06:53:43.027Z,-1.67
2019-01-20T06:56:13.753Z,-1.60
2019-01-20T06:58:44.274Z,-1.52
2019-01-20T07:01:14.653Z,-1.57
2019-01-20T07:03:45.127Z,-1.59
2019-01-20T07:06:15.650Z,-1.62
2019-01-20T07:08:46.496Z,-1.55
2019-01-20T07:11:16.914Z,-1.59
2019-01-20T07:13:47.824Z,-1.60
2019-01-20T07:16:19.154Z,-1.61
2019-01-20T07:18:49.655Z,-1.63
2019-01-20T07:21:20.127Z,-1.64
2019-01-20T07:23:50.675Z,-1.68
2019-01-20T07:26:21.132Z,-1.55
2019-01-20T07:28:52.890Z,-1.60
2019-01-20T07:33:52.706Z,-1.63
2019-01-20T07:36:23.176Z,-1.62
2019-01-20T07:38:53.693Z,-1.71
2019-01-20T07:41:24.067Z,-1.72
2019-01-20T07:43:54.548Z,-1.72
2019-01-20T07:46:25.005Z,-1.62
2019-01-20T07:48:55.490Z,-1.58
2019-01-20T07:51:25.985Z,-1.55
2019-01-20T07:53:56.454Z,-1.50
2019-01-20T07:56:27.527Z,-1.48
2019-01-20T07:58:58.312Z,-1.54
2019-01-20T08:01:28.791Z,-1.47
2019-01-20T08:03:59.305Z,-1.46
2019-01-20T08:06:29.757Z,-1.46
2019-01-20T08:09:00.417Z,-1.39
2019-01-20T08:11:30.861Z,-1.20
2019-01-20T08:14:01.602Z,-0.88
2019-01-20T08:16:32.020Z,-0.57
2019-01-20T08:19:02.779Z,-0.16
2019-01-20T08:21:33.470Z,0.18
2019-01-20T08:24:04.556Z,0.50
2019-01-20T08:26:34.969Z,0.81
2019-01-20T08:29:05.545Z,0.59
2019-01-20T08:31:36.031Z,1.04
2019-01-20T08:34:06.754Z,1.43
2019-01-20T08:36:37.215Z,1.46
2019-01-20T08:39:09.229Z,1.65
2019-01-20T08:41:39.675Z,1.77
2019-01-20T08:44:12.539Z,1.68
2019-01-20T08:47:09.857Z,1.77
2019-01-20T08:49:40.255Z,1.87
2019-01-20T08:52:10.675Z,2.75
2019-01-20T08:54:41.135Z,2.49
2019-01-20T08:57:11.628Z,3.13
2019-01-20T08:59:42.064Z,3.17
2019-01-20T09:02:12.499Z,3.47
2019-01-20T09:04:43.568Z,3.30
2019-01-20T09:07:14.302Z,3.79
2019-01-20T09:09:44.895Z,4.17
2019-01-20T09:12:15.268Z,4.02
2019-01-20T09:14:45.951Z,4.07
2019-01-20T09:17:16.456Z,3.31
2019-01-20T09:19:46.868Z,4.28
2019-01-20T09:22:17.329Z,3.53
2019-01-20T09:24:47.731Z,4.63
2019-01-20T09:27:18.523Z,4.52
2019-01-20T09:29:49.175Z,3.22
2019-01-20T09:32:19.651Z,4.03
2019-01-20T09:34:50.273Z,4.59
2019-01-20T09:37:20.738Z,4.39
2019-01-20T09:39:51.230Z,4.67
2019-01-20T09:42:21.641Z,5.12
2019-01-20T09:44:52.084Z,4.91
2019-01-20T09:47:22.561Z,5.08
2019-01-20T09:49:53.043Z,5.09
2019-01-20T09:52:23.835Z,4.48
2019-01-20T09:54:54.325Z,3.17
2019-01-20T09:57:25.087Z,4.25
2019-01-20T09:59:55.746Z,4.54
2019-01-20T10:02:26.188Z,5.23
2019-01-20T10:04:56.695Z,4.98
2019-01-20T10:07:27.469Z,5.42
2019-01-20T10:09:58.305Z,3.78
2019-01-20T10:12:29.057Z,4.89
2019-01-20T10:14:59.440Z,4.62
2019-01-20T10:17:31.532Z,4.82
2019-01-20T10:20:02.000Z,5.11
2019-01-20T10:22:32.777Z,5.10
2019-01-20T10:25:03.548Z,5.61
2019-01-20T10:27:35.584Z,5.71
2019-01-20T10:30:12.121Z,6.11
2019-01-20T10:32:42.758Z,5.68
2019-01-20T10:35:13.872Z,6.47
2019-01-20T10:37:44.502Z,6.42
2019-01-20T10:40:14.992Z,5.55
2019-01-20T10:42:45.354Z,5.67
2019-01-20T10:45:16.433Z,5.97
2019-01-20T10:47:47.031Z,6.28
2019-01-20T10:50:18.194Z,6.23
2019-01-20T10:52:48.703Z,6.82
2019-01-20T10:55:19.354Z,7.04
2019-01-20T10:57:50.156Z,7.12
2019-01-20T11:00:28.215Z,6.86
2019-01-20T11:02:59.022Z,7.72
2019-01-20T11:05:30.893Z,7.46
2019-01-20T11:08:02.702Z,6.99
2019-01-20T11:10:33.323Z,7.12
2019-01-20T11:13:04.463Z,7.26
2019-01-20T11:15:35.115Z,7.39
2019-01-20T11:18:05.786Z,7.43
2019-01-20T11:20:36.530Z,7.57
2019-01-20T11:23:07.828Z,7.41
2019-01-20T11:25:43.829Z,7.80
2019-01-20T11:28:14.631Z,7.70
2019-01-20T11:30:45.408Z,8.11
2019-01-20T11:33:16.016Z,8.40
2019-01-20T11:35:47.466Z,8.25
2019-01-20T11:38:18.457Z,8.83
2019-01-20T11:40:49.191Z,8.85
2019-01-20T11:43:20.276Z,8.47
2019-01-20T11:45:50.856Z,8.30
2019-01-20T11:48:21.603Z,8.17
2019-01-20T11:50:52.826Z,8.23
2019-01-20T11:53:23.630Z,8.29
2019-01-20T11:55:54.434Z,7.91
2019-01-20T11:58:25.082Z,7.59
2019-01-20T12:00:55.798Z,7.42
2019-01-20T12:03:26.557Z,8.50
2019-01-20T12:05:57.314Z,8.76
2019-01-20T12:08:30.769Z,8.64
2019-01-20T12:11:00.680Z,8.27
2019-01-20T12:13:31.835Z,8.35
2019-01-20T12:16:02.778Z,8.56
2019-01-20T12:18:33.611Z,8.03
2019-01-20T12:21:04.672Z,8.60
2019-01-20T12:23:35.914Z,8.84
2019-01-20T12:26:06.832Z,8.89
2019-01-20T12:28:37.569Z,8.84
2019-01-20T12:31:08.135Z,8.49
2019-01-20T12:33:39.262Z,8.41
2019-01-20T12:36:10.063Z,8.27
2019-01-20T12:38:41.518Z,9.39
2019-01-20T12:41:12.277Z,8.86
2019-01-20T12:43:42.962Z,9.20
2019-01-20T12:46:14.173Z,8.87
2019-01-20T12:48:44.880Z,8.27
2019-01-20T12:51:15.510Z,8.05
2019-01-20T12:53:46.280Z,8.07
2019-01-20T12:56:17.153Z,8.10
2019-01-20T12:58:47.868Z,8.39
2019-01-20T13:01:18.483Z,8.43
2019-01-20T13:03:49.452Z,8.83
2019-01-20T13:06:20.131Z,8.67
2019-01-20T13:08:51.378Z,8.95
2019-01-20T13:11:22.425Z,7.88
2019-01-20T13:13:53.098Z,8.27
2019-01-20T13:16:23.556Z,8.72
2019-01-20T13:18:54.165Z,8.00
2019-01-20T13:21:24.858Z,7.84
2019-01-20T13:23:55.376Z,8.22
2019-01-20T13:26:26.405Z,8.33
2019-01-20T13:28:57.253Z,8.47
2019-01-20T13:31:27.878Z,8.45
2019-01-20T13:33:58.909Z,8.24
2019-01-20T13:36:29.402Z,8.23
2019-01-20T13:38:59.853Z,8.34
2019-01-20T13:41:33.715Z,8.37
2019-01-20T13:44:04.200Z,7.94
2019-01-20T13:46:34.631Z,8.18
2019-01-20T13:49:05.409Z,7.80
2019-01-20T13:51:36.078Z,8.02
2019-01-20T13:54:07.446Z,7.65
2019-01-20T13:56:38.567Z,7.50
2019-01-20T13:59:08.944Z,7.49
2019-01-20T14:01:39.727Z,7.10
2019-01-20T14:04:10.523Z,7.12
2019-01-20T14:06:41.295Z,6.81
2019-01-20T14:09:12.397Z,6.54
2019-01-20T14:11:43.155Z,6.49
2019-01-20T14:14:13.587Z,6.46
2019-01-20T14:16:44.035Z,6.35
2019-01-20T14:19:21.483Z,6.27
2019-01-20T14:21:47.034Z,6.20
2019-01-20T14:24:17.387Z,6.62
2019-01-20T14:26:47.892Z,6.41
2019-01-20T14:29:18.590Z,6.27
2019-01-20T14:31:49.027Z,6.67
2019-01-20T14:34:20.143Z,6.47
2019-01-20T14:36:50.624Z,6.81
2019-01-20T14:39:21.076Z,6.16
2019-01-20T14:41:51.812Z,6.37
2019-01-20T14:44:22.289Z,6.07
2019-01-20T14:46:52.821Z,5.89
2019-01-20T14:49:23.211Z,5.82
2019-01-20T14:51:53.953Z,5.47
2019-01-20T14:54:26.115Z,5.63
2019-01-20T14:56:56.586Z,5.23
2019-01-20T14:59:27.390Z,5.44
2019-01-20T15:01:57.777Z,5.27
2019-01-20T15:04:28.517Z,5.12
2019-01-20T15:06:59.230Z,4.99
2019-01-20T15:09:29.676Z,4.72
2019-01-20T15:12:00.097Z,4.70
2019-01-20T15:14:30.802Z,4.49
2019-01-20T15:17:01.189Z,4.49
2019-01-20T15:19:31.714Z,4.44
2019-01-20T15:22:02.322Z,4.39
2019-01-20T15:24:32.792Z,4.22
2019-01-20T15:27:03.164Z,4.14
2019-01-20T15:29:33.710Z,3.95
2019-01-20T15:32:04.229Z,3.90
2019-01-20T15:34:34.639Z,3.94
2019-01-20T15:37:05.179Z,3.83
2019-01-20T15:39:35.679Z,3.67
2019-01-20T15:42:06.252Z,3.57
2019-01-20T15:44:36.960Z,3.49
2019-01-20T15:47:07.779Z,3.41
2019-01-20T15:49:38.117Z,3.36
2019-01-20T15:52:08.577Z,3.27
2019-01-20T15:54:39.291Z,3.20
2019-01-20T15:57:09.767Z,3.14
2019-01-20T15:59:57.966Z,3.03
2019-01-20T16:02:28.425Z,3.01
2019-01-20T16:04:59.535Z,2.92
2019-01-20T16:07:30.003Z,2.86
2019-01-20T16:10:00.509Z,2.79
2019-01-20T16:12:31.103Z,2.74
2019-01-20T16:15:01.537Z,2.64
2019-01-20T16:17:32.211Z,2.59
2019-01-20T16:20:02.914Z,2.60
2019-01-20T16:22:33.337Z,2.48
2019-01-20T16:25:05.345Z,2.41
2019-01-20T16:27:36.059Z,2.35
2019-01-20T16:30:08.711Z,2.25
2019-01-20T16:32:40.009Z,2.20
2019-01-20T16:35:12.451Z,2.12
2019-01-20T16:37:43.189Z,2.07
2019-01-20T16:40:17.918Z,1.97
2019-01-20T16:42:48.315Z,1.92
2019-01-20T16:45:22.794Z,1.90
2019-01-20T16:47:53.188Z,1.85
2019-01-20T16:50:24.877Z,1.79
2019-01-20T16:52:55.627Z,1.68
2019-01-20T16:55:26.404Z,1.74
2019-01-20T16:57:56.912Z,1.63
2019-01-20T17:00:30.666Z,1.56
2019-01-20T17:03:01.199Z,1.52
2019-01-20T17:05:32.005Z,1.46
2019-01-20T17:08:02.808Z,1.39
2019-01-20T17:10:36.629Z,1.38
2019-01-20T17:13:08.627Z,1.42
2019-01-20T17:15:41.995Z,1.39
2019-01-20T17:18:14.601Z,1.32
2019-01-20T17:20:45.379Z,1.31
2019-01-20T17:23:16.098Z,1.32
2019-01-20T17:25:46.613Z,1.32
2019-01-20T17:28:17.062Z,1.18
2019-01-20T17:30:47.651Z,1.11
2019-01-20T17:33:18.225Z,1.08
2019-01-20T17:35:48.682Z,1.05
2019-01-20T17:38:19.158Z,1.02
2019-01-20T17:40:49.902Z,1.03
2019-01-20T17:43:20.293Z,1.02
2019-01-20T17:45:50.859Z,0.98
2019-01-20T17:48:21.471Z,0.92
2019-01-20T17:50:52.214Z,0.87
2019-01-20T17:53:22.771Z,0.79
2019-01-20T17:55:53.524Z,0.76
2019-01-20T17:58:24.265Z,0.77
2019-01-20T18:00:58.464Z,0.68
2019-01-20T18:03:28.927Z,0.73
2019-01-20T18:05:59.597Z,0.74
2019-01-20T18:08:30.380Z,0.69
2019-01-20T18:11:01.224Z,0.69
2019-01-20T18:13:32.205Z,0.62
2019-01-20T18:16:02.764Z,0.55
2019-01-20T18:18:33.566Z,0.59
2019-01-20T18:21:04.456Z,0.52
2019-01-20T18:23:35.230Z,0.55
2019-01-20T18:26:06.308Z,0.56
2019-01-20T18:28:36.750Z,0.58
2019-01-20T18:31:07.523Z,0.49
2019-01-20T18:33:37.977Z,0.52
2019-01-20T18:36:08.444Z,0.52
2019-01-20T18:38:39.327Z,0.49
2019-01-20T18:41:10.005Z,0.46
2019-01-20T18:43:40.506Z,0.38
2019-01-20T18:46:11.021Z,0.33
2019-01-20T18:48:41.454Z,0.35
2019-01-20T18:51:12.291Z,0.29
2019-01-20T18:53:42.975Z,0.24
2019-01-20T18:56:13.759Z,0.25
2019-01-20T18:58:44.510Z,0.17
2019-01-20T19:01:15.839Z,0.16
2019-01-20T19:03:46.448Z,0.14
2019-01-20T19:06:17.717Z,0.17
2019-01-20T19:08:48.134Z,0.18
2019-01-20T19:11:18.850Z,0.27
2019-01-20T19:13:49.627Z,0.26
2019-01-20T19:16:20.406Z,0.21
2019-01-20T19:18:50.720Z,0.20
2019-01-20T19:21:21.399Z,0.13
2019-01-20T19:23:51.909Z,0.14
2019-01-20T19:26:22.350Z,0.08
2019-01-20T19:28:54.276Z,0.07
2019-01-20T19:31:25.040Z,-0.01
2019-01-20T19:33:55.479Z,-0.06
2019-01-20T19:36:25.924Z,-0.09
2019-01-20T19:38:56.692Z,-0.10
2019-01-20T19:41:27.156Z,-0.12
2019-01-20T19:43:57.878Z,-0.13
2019-01-20T19:46:28.983Z,-0.19
2019-01-20T19:48:59.389Z,-0.22
2019-01-20T19:51:30.081Z,-0.20
2019-01-20T19:54:00.834Z,-0.21
2019-01-20T19:56:31.595Z,-0.23
2019-01-20T19:59:02.331Z,-0.26
2019-01-20T20:01:32.766Z,-0.19
2019-01-20T20:04:03.316Z,-0.05
2019-01-20T20:06:33.838Z,-0.09
2019-01-20T20:09:06.053Z,-0.10
2019-01-20T20:11:36.398Z,-0.16
2019-01-20T20:14:07.757Z,-0.20
2019-01-20T20:16:38.325Z,-0.27
2019-01-20T20:19:09.323Z,-0.33
2019-01-20T20:21:40.246Z,-0.37
2019-01-20T20:24:10.882Z,-0.37
2019-01-20T20:26:41.816Z,-0.41
2019-01-20T20:29:12.415Z,-0.43
2019-01-20T20:31:43.096Z,-0.44
2019-01-20T20:34:13.715Z,-0.50
2019-01-20T20:36:44.571Z,-0.54
2019-01-20T20:39:16.088Z,-0.55
2019-01-20T20:41:46.607Z,-0.56
2019-01-20T20:44:17.344Z,-0.59
2019-01-20T20:46:48.058Z,-0.67
2019-01-20T20:49:18.661Z,-0.74
2019-01-20T20:51:49.910Z,-0.81
2019-01-20T20:54:20.893Z,-0.86
2019-01-20T20:56:52.045Z,-0.85
2019-01-20T20:59:22.651Z,-0.85
2019-01-20T21:01:53.198Z,-0.87
2019-01-20T21:04:24.995Z,-0.89
2019-01-20T21:06:55.866Z,-0.91
2019-01-20T21:09:26.607Z,-0.94
2019-01-20T21:11:57.572Z,-1.00
2019-01-20T21:14:28.522Z,-1.04
2019-01-20T21:16:59.462Z,-1.06
2019-01-20T21:19:30.162Z,-1.02
2019-01-20T21:22:00.821Z,-1.04
2019-01-20T21:24:31.464Z,-1.07
2019-01-20T21:27:02.172Z,-1.12
2019-01-20T21:29:33.048Z,-1.15
2019-01-20T21:32:04.136Z,-1.15
2019-01-20T21:34:35.198Z,-1.15
2019-01-20T21:37:06.299Z,-1.17
2019-01-20T21:39:37.086Z,-1.24
2019-01-20T21:42:08.323Z,-1.28
2019-01-20T21:44:39.026Z,-1.26
2019-01-20T21:47:10.052Z,-1.24
2019-01-20T21:49:40.771Z,-1.25
2019-01-20T21:52:11.751Z,-1.27
2019-01-20T21:54:42.102Z,-1.28
2019-01-20T21:57:12.612Z,-1.32
2019-01-20T21:59:43.371Z,-1.31
2019-01-20T22:02:14.133Z,-1.32
2019-01-20T22:04:44.639Z,-1.29
2019-01-20T22:07:15.119Z,-1.28
2019-01-20T22:09:45.904Z,-1.17
2019-01-20T22:12:16.300Z,-1.09
2019-01-20T22:14:47.090Z,-1.07
2019-01-20T22:17:17.881Z,-1.12
2019-01-20T22:19:48.517Z,-1.14
2019-01-20T22:22:19.530Z,-1.17
2019-01-20T22:24:50.023Z,-1.18
2019-01-20T22:27:21.067Z,-1.19
2019-01-20T22:29:51.567Z,-1.25
2019-01-20T22:32:22.396Z,-1.21
2019-01-20T22:34:53.503Z,-1.26
2019-01-20T22:37:24.338Z,-1.27
2019-01-20T22:39:55.309Z,-1.28
2019-01-20T22:42:26.165Z,-1.33
2019-01-20T22:44:56.758Z,-1.33
2019-01-20T22:47:27.593Z,-1.35
2019-01-20T22:49:58.377Z,-1.35
2019-01-20T22:52:29.412Z,-1.35
2019-01-20T22:54:59.911Z,-1.33
2019-01-20T22:57:30.381Z,-1.39
2019-01-20T23:00:02.148Z,-1.41
2019-01-20T23:02:32.654Z,-1.44
2019-01-20T23:05:03.520Z,-1.45
2019-01-20T23:07:34.612Z,-1.45
2019-01-20T23:10:06.525Z,-1.50
2019-01-20T23:12:37.288Z,-1.52
2019-01-20T23:15:08.887Z,-1.56
2019-01-20T23:17:39.687Z,-1.51
2019-01-20T23:20:14.240Z,-1.55
2019-01-20T23:22:45.050Z,-1.58
2019-01-20T23:25:15.954Z,-1.57
2019-01-20T23:27:46.471Z,-1.58
2019-01-20T23:30:20.046Z,-1.63
2019-01-20T23:32:50.927Z,-1.64
2019-01-20T23:35:21.362Z,-1.68
2019-01-20T23:37:52.245Z,-1.71
2019-01-20T23:40:22.770Z,-1.71
2019-01-20T23:42:53.271Z,-1.72
2019-01-20T23:45:24.634Z,-1.69
2019-01-20T23:47:55.358Z,-1.73
2019-01-20T23:50:26.076Z,-1.71
2019-01-20T23:52:56.600Z,-1.57
2019-01-20T23:55:27.056Z,-1.56
2019-01-20T23:57:57.899Z,-1.37
